Time,TemperatureF,DewpointF,PressureIn,WindDirection,WindDirectionDegrees,WindSpeedMPH,WindSpeedGustMPH,Humidity,HourlyPrecipIn,Conditions,Clouds,dailyrainin,SoftwareType,DateUTC
2013-05-27 00:07:00,63.4,56.0,30.23,NNE,24,1.0,2.0,78,0.00,,,0.00,weatherlink.com 1.10,2013-05-27 04:07:00,
2013-05-27 00:22:00,63.0,57.0,30.23,NNE,24,1.0,3.0,80,0.00,,,0.00,weatherlink.com 1.10,2013-05-27 04:22:00,
2013-05-27 00:37:00,62.7,57.0,30.23,NNE,24,2.0,2.0,82,0.00,,,0.00,weatherlink.com 1.10,2013-05-27 04:37:00,
2013-05-27 00:52:00,62.5,58.0,30.23,NNE,24,0.0,2.0,84,0.00,,,0.00,weatherlink.com 1.10,2013-05-27 04:52:00,
2013-05-27 01:07:00,62.1,58.0,30.23,NNE,24,0.0,3.0,85,0.00,,,0.00,weatherlink.com 1.10,2013-05-27 05:07:00,
2013-05-27 01:22:00,61.5,58.0,30.23,NNE,24,1.0,3.0,87,0.00,,,0.00,weatherlink.com 1.10,2013-05-27 05:22:00,
2013-05-27 01:37:00,61.2,58.0,30.23,NE,37,0.0,3.0,88,0.00,,,0.00,weatherlink.com 1.10,2013-05-27 05:37:00,
2013-05-27 01:52:00,61.3,58.0,30.22,NE,37,0.0,2.0,89,0.00,,,0.00,weatherlink.com 1.10,2013-05-27 05:52:00,
2013-05-27 02:07:00,61.3,58.0,30.22,NE,37,0.0,2.0,88,0.00,,,0.00,weatherlink.com 1.10,2013-05-27 06:07:00,
2013-05-27 02:22:00,61.7,58.0,30.22,NE,37,1.0,2.0,88,0.00,,,0.00,weatherlink.com 1.10,2013-05-27 06:22:00,
2013-05-27 02:37:00,61.8,58.0,30.23,NE,37,0.0,2.0,88,0.00,,,0.00,weatherlink.com 1.10,2013-05-27 06:37:00,
2013-05-27 02:52:00,61.7,58.0,30.23,NE,37,1.0,1.0,88,0.00,,,0.00,weatherlink.com 1.10,2013-05-27 06:52:00,
2013-05-27 03:07:00,61.7,59.0,30.23,NE,37,1.0,2.0,89,0.00,,,0.00,weatherlink.com 1.10,2013-05-27 07:07:00,
2013-05-27 03:22:00,61.6,58.0,30.23,NE,37,1.0,2.0,89,0.00,,,0.00,weatherlink.com 1.10,2013-05-27 07:22:00,
2013-05-27 03:37:00,61.3,58.0,30.23,NE,37,0.0,2.0,90,0.00,,,0.00,weatherlink.com 1.10,2013-05-27 07:37:00,
2013-05-27 03:52:00,61.3,59.0,30.23,NE,37,1.0,3.0,91,0.00,,,0.00,weatherlink.com 1.10,2013-05-27 07:52:00,
2013-05-27 04:07:00,60.9,58.0,30.23,NE,37,0.0,2.0,91,0.00,,,0.00,weatherlink.com 1.10,2013-05-27 08:07:00,
2013-05-27 04:22:00,60.5,58.0,30.23,NE,37,1.0,2.0,92,0.00,,,0.00,weatherlink.com 1.10,2013-05-27 08:22:00,
2013-05-27 04:37:00,60.4,58.0,30.23,NE,37,1.0,2.0,92,0.00,,,0.00,weatherlink.com 1.10,2013-05-27 08:37:00,
2013-05-27 04:52:00,60.0,58.0,30.23,NE,37,1.0,2.0,92,0.00,,,0.00,weatherlink.com 1.10,2013-05-27 08:52:00,
2013-05-27 05:07:00,59.7,57.0,30.23,NE,37,0.0,0.0,92,0.00,,,0.00,weatherlink.com 1.10,2013-05-27 09:07:00,
2013-05-27 05:22:00,59.5,58.0,30.23,NE,37,1.0,2.0,93,0.00,,,0.00,weatherlink.com 1.10,2013-05-27 09:22:00,
2013-05-27 05:37:00,59.5,57.0,30.24,NE,37,0.0,1.0,92,0.00,,,0.00,weatherlink.com 1.10,2013-05-27 09:37:00,
2013-05-27 05:52:00,59.3,57.0,30.24,NE,37,0.0,2.0,93,0.00,,,0.00,weatherlink.com 1.10,2013-05-27 09:52:00,
2013-05-27 06:07:00,59.3,57.0,30.25,NE,37,0.0,0.0,93,0.00,,,0.00,weatherlink.com 1.10,2013-05-27 10:07:00,
2013-05-27 06:22:00,59.2,57.0,30.25,NE,37,0.0,0.0,93,0.00,,,0.00,weatherlink.com 1.10,2013-05-27 10:22:00,
2013-05-27 06:37:00,59.8,58.0,30.26,NE,37,0.0,0.0,94,0.00,,,0.00,weatherlink.com 1.10,2013-05-27 10:37:00,
2013-05-27 06:52:00,61.0,59.0,30.26,NE,37,0.0,0.0,94,0.00,,,0.00,weatherlink.com 1.10,2013-05-27 10:52:00,
2013-05-27 07:07:00,61.8,60.0,30.27,NE,37,0.0,0.0,93,0.00,,,0.00,weatherlink.com 1.10,2013-05-27 11:07:00,
2013-05-27 07:23:00,62.8,61.0,30.27,NE,37,0.0,0.0,92,0.00,,,0.00,weatherlink.com 1.10,2013-05-27 11:23:00,
2013-05-27 07:38:00,64.0,61.0,30.27,NE,40,3.0,4.0,90,0.00,,,0.00,weatherlink.com 1.10,2013-05-27 11:38:00,
2013-05-27 07:53:00,65.8,62.0,30.27,NE,45,2.0,3.0,88,0.00,,,0.00,weatherlink.com 1.10,2013-05-27 11:53:00,
2013-05-27 08:08:00,66.9,63.0,30.27,ENE,57,2.0,4.0,86,0.00,,,0.00,weatherlink.com 1.10,2013-05-27 12:08:00,
2013-05-27 08:23:00,68.4,62.0,30.27,East,98,5.0,5.0,81,0.00,,,0.00,weatherlink.com 1.10,2013-05-27 12:23:00,
2013-05-27 08:38:00,69.2,60.0,30.27,ESE,103,2.0,4.0,72,0.00,,,0.00,weatherlink.com 1.10,2013-05-27 12:38:00,
2013-05-27 08:53:00,70.0,59.0,30.27,ESE,116,2.0,5.0,68,0.00,,,0.00,weatherlink.com 1.10,2013-05-27 12:53:00,
2013-05-27 09:08:00,69.7,59.0,30.27,ESE,111,3.0,6.0,69,0.00,,,0.00,weatherlink.com 1.10,2013-05-27 13:08:00,
2013-05-27 09:23:00,69.9,60.0,30.27,ESE,107,7.0,7.0,71,0.00,,,0.00,weatherlink.com 1.10,2013-05-27 13:23:00,
2013-05-27 09:38:00,69.8,61.0,30.27,ESE,114,3.0,9.0,74,0.00,,,0.00,weatherlink.com 1.10,2013-05-27 13:38:00,
2013-05-27 09:53:00,69.7,62.0,30.27,SE,127,5.0,8.0,76,0.00,,,0.00,weatherlink.com 1.10,2013-05-27 13:53:00,
2013-05-27 10:08:00,69.8,62.0,30.28,ESE,117,3.0,8.0,75,0.00,,,0.00,weatherlink.com 1.10,2013-05-27 14:08:00,
2013-05-27 10:23:00,70.7,61.0,30.28,SSE,153,1.0,8.0,71,0.00,,,0.00,weatherlink.com 1.10,2013-05-27 14:23:00,
2013-05-27 10:38:00,70.2,60.0,30.28,SE,142,7.0,9.0,69,0.00,,,0.00,weatherlink.com 1.10,2013-05-27 14:38:00,
2013-05-27 10:53:00,70.2,57.0,30.28,SE,139,6.0,10.0,64,0.00,,,0.00,weatherlink.com 1.10,2013-05-27 14:53:00,
2013-05-27 11:08:00,70.6,57.0,30.28,SE,136,6.0,9.0,62,0.00,,,0.00,weatherlink.com 1.10,2013-05-27 15:08:00,
2013-05-27 11:23:00,70.7,55.0,30.28,SSE,155,4.0,9.0,58,0.00,,,0.00,weatherlink.com 1.10,2013-05-27 15:23:00,
2013-05-27 11:38:00,70.9,56.0,30.28,SE,140,9.0,9.0,60,0.00,,,0.00,weatherlink.com 1.10,2013-05-27 15:38:00,
2013-05-27 11:53:00,70.6,55.0,30.28,SE,140,4.0,10.0,59,0.00,,,0.00,weatherlink.com 1.10,2013-05-27 15:53:00,
2013-05-27 12:08:00,71.2,57.0,30.28,SSE,147,4.0,9.0,61,0.00,,,0.00,weatherlink.com 1.10,2013-05-27 16:08:00,
2013-05-27 12:23:00,72.2,55.0,30.28,SE,139,7.0,9.0,56,0.00,,,0.00,weatherlink.com 1.10,2013-05-27 16:23:00,
2013-05-27 12:38:00,72.1,55.0,30.28,South,171,5.0,8.0,56,0.00,,,0.00,weatherlink.com 1.10,2013-05-27 16:38:00,
2013-05-27 12:53:00,72.9,56.0,30.27,SE,142,5.0,7.0,56,0.00,,,0.00,weatherlink.com 1.10,2013-05-27 16:53:00,
2013-05-27 13:08:00,72.7,56.0,30.27,South,174,4.0,8.0,57,0.00,,,0.00,weatherlink.com 1.10,2013-05-27 17:08:00,
2013-05-27 13:23:00,72.9,58.0,30.26,South,184,5.0,9.0,59,0.00,,,0.00,weatherlink.com 1.10,2013-05-27 17:23:00,
2013-05-27 13:38:00,73.5,58.0,30.26,SSE,164,3.0,8.0,58,0.00,,,0.00,weatherlink.com 1.10,2013-05-27 17:38:00,
2013-05-27 13:53:00,72.8,57.0,30.26,SSE,159,5.0,10.0,59,0.00,,,0.00,weatherlink.com 1.10,2013-05-27 17:53:00,
2013-05-27 14:08:00,73.0,57.0,30.26,South,180,2.0,9.0,58,0.00,,,0.00,weatherlink.com 1.10,2013-05-27 18:08:00,
2013-05-27 14:23:00,72.9,57.0,30.26,South,172,4.0,10.0,58,0.00,,,0.00,weatherlink.com 1.10,2013-05-27 18:23:00,
2013-05-27 14:38:00,73.0,57.0,30.26,SE,127,4.0,9.0,58,0.00,,,0.00,weatherlink.com 1.10,2013-05-27 18:38:00,
2013-05-27 14:53:00,72.8,57.0,30.26,SSE,148,5.0,10.0,59,0.00,,,0.00,weatherlink.com 1.10,2013-05-27 18:53:00,
2013-05-27 15:09:00,73.3,57.0,30.25,SSE,167,4.0,10.0,58,0.00,,,0.00,weatherlink.com 1.10,2013-05-27 19:09:00,
2013-05-27 15:23:00,72.8,58.0,30.25,South,179,5.0,11.0,60,0.00,,,0.00,weatherlink.com 1.10,2013-05-27 19:23:00,
2013-05-27 15:38:00,73.0,59.0,30.25,SSE,165,3.0,10.0,62,0.00,,,0.00,weatherlink.com 1.10,2013-05-27 19:38:00,
2013-05-27 15:53:00,73.3,59.0,30.24,South,188,4.0,11.0,61,0.00,,,0.00,weatherlink.com 1.10,2013-05-27 19:53:00,
2013-05-27 16:08:00,73.8,59.0,30.24,SSE,165,12.0,12.0,61,0.00,,,0.00,weatherlink.com 1.10,2013-05-27 20:08:00,
2013-05-27 16:23:00,73.6,61.0,30.23,SSW,192,4.0,10.0,64,0.00,,,0.00,weatherlink.com 1.10,2013-05-27 20:23:00,
2013-05-27 16:38:00,73.5,60.0,30.23,SSW,207,4.0,10.0,63,0.00,,,0.00,weatherlink.com 1.10,2013-05-27 20:38:00,
2013-05-27 16:53:00,74.3,60.0,30.23,SSE,168,1.0,9.0,62,0.00,,,0.00,weatherlink.com 1.10,2013-05-27 20:53:00,
2013-05-27 17:08:00,73.7,60.0,30.22,South,187,4.0,10.0,63,0.00,,,0.00,weatherlink.com 1.10,2013-05-27 21:08:00,
2013-05-27 17:23:00,73.3,60.0,30.22,SSW,200,1.0,7.0,63,0.00,,,0.00,weatherlink.com 1.10,2013-05-27 21:23:00,
2013-05-27 17:38:00,73.3,61.0,30.21,South,182,4.0,7.0,66,0.00,,,0.00,weatherlink.com 1.10,2013-05-27 21:38:00,
2013-05-27 17:53:00,72.8,60.0,30.21,South,184,4.0,7.0,64,0.00,,,0.00,weatherlink.com 1.10,2013-05-27 21:53:00,
2013-05-27 18:08:00,73.4,61.0,30.21,South,176,5.0,8.0,65,0.00,,,0.00,weatherlink.com 1.10,2013-05-27 22:08:00,
2013-05-27 18:24:00,72.7,61.0,30.21,SSE,167,2.0,7.0,67,0.00,,,0.00,weatherlink.com 1.10,2013-05-27 22:24:00,
2013-05-27 18:39:00,72.4,61.0,30.20,SSW,213,1.0,8.0,68,0.00,,,0.00,weatherlink.com 1.10,2013-05-27 22:39:00,
2013-05-27 18:54:00,72.2,61.0,30.21,SSW,195,3.0,8.0,69,0.00,,,0.00,weatherlink.com 1.10,2013-05-27 22:54:00,
2013-05-27 19:09:00,71.8,62.0,30.21,South,175,3.0,7.0,70,0.00,,,0.00,weatherlink.com 1.10,2013-05-27 23:09:00,
2013-05-27 19:24:00,71.6,61.0,30.21,SSW,192,2.0,7.0,70,0.00,,,0.00,weatherlink.com 1.10,2013-05-27 23:24:00,
2013-05-27 19:39:00,71.3,61.0,30.22,South,178,2.0,7.0,71,0.00,,,0.00,weatherlink.com 1.10,2013-05-27 23:39:00,
2013-05-27 19:54:00,71.0,61.0,30.22,SSW,206,4.0,7.0,70,0.00,,,0.00,weatherlink.com 1.10,2013-05-27 23:54:00,
2013-05-27 20:09:00,70.8,61.0,30.21,SSW,202,1.0,6.0,71,0.00,,,0.00,weatherlink.com 1.10,2013-05-28 00:09:00,
2013-05-27 20:24:00,70.8,62.0,30.22,SSW,211,1.0,5.0,73,0.00,,,0.00,weatherlink.com 1.10,2013-05-28 00:24:00,
2013-05-27 20:39:00,70.5,61.0,30.22,SSW,197,1.0,6.0,73,0.00,,,0.00,weatherlink.com 1.10,2013-05-28 00:39:00,
2013-05-27 20:54:00,70.7,61.0,30.22,SSW,211,4.0,7.0,71,0.00,,,0.00,weatherlink.com 1.10,2013-05-28 00:54:00,
2013-05-27 21:09:00,70.5,61.0,30.22,SW,215,3.0,5.0,72,0.00,,,0.00,weatherlink.com 1.10,2013-05-28 01:09:00,
2013-05-27 21:24:00,70.4,61.0,30.23,SSW,204,0.0,5.0,72,0.00,,,0.00,weatherlink.com 1.10,2013-05-28 01:24:00,
2013-05-27 21:39:00,70.3,61.0,30.23,SSW,200,1.0,6.0,73,0.00,,,0.00,weatherlink.com 1.10,2013-05-28 01:39:00,
2013-05-27 21:54:00,70.3,60.0,30.23,SSW,211,1.0,5.0,71,0.00,,,0.00,weatherlink.com 1.10,2013-05-28 01:54:00,
2013-05-27 22:09:00,70.2,61.0,30.23,SSW,200,4.0,5.0,73,0.00,,,0.00,weatherlink.com 1.10,2013-05-28 02:09:00,
2013-05-27 22:24:00,70.2,61.0,30.23,SW,223,3.0,7.0,72,0.00,,,0.00,weatherlink.com 1.10,2013-05-28 02:24:00,
2013-05-27 22:39:00,70.2,61.0,30.23,SSW,202,2.0,7.0,72,0.00,,,0.00,weatherlink.com 1.10,2013-05-28 02:39:00,
2013-05-27 22:54:00,70.4,61.0,30.23,South,184,5.0,6.0,72,0.00,,,0.00,weatherlink.com 1.10,2013-05-28 02:54:00,
2013-05-27 23:09:00,70.4,62.0,30.23,WSW,250,3.0,6.0,75,0.00,,,0.00,weatherlink.com 1.10,2013-05-28 03:09:00,
2013-05-27 23:24:00,70.2,62.0,30.22,SSW,200,4.0,8.0,76,0.00,,,0.00,weatherlink.com 1.10,2013-05-28 03:24:00,
2013-05-27 23:39:00,70.5,62.0,30.23,South,184,6.0,9.0,74,0.00,,,0.00,weatherlink.com 1.10,2013-05-28 03:39:00,
2013-05-27 23:54:00,70.5,63.0,30.23,SW,217,4.0,7.0,76,0.00,,,0.00,weatherlink.com 1.10,2013-05-28 03:54:00,